createdAt,value
2018-04-25T00:02:07.254Z,84.25
2018-04-25T00:04:34.746Z,84.94
2018-04-25T00:07:02.308Z,85.34
2018-04-25T00:09:29.811Z,85.40
2018-04-25T00:11:57.296Z,86.26
2018-04-25T00:14:24.749Z,86.00
2018-04-25T00:16:52.203Z,85.85
2018-04-25T00:19:19.676Z,86.53
2018-04-25T00:21:47.165Z,86.91
2018-04-25T00:24:14.626Z,86.87
2018-04-25T00:26:42.092Z,86.85
2018-04-25T00:29:09.730Z,87.08
2018-04-25T00:31:37.290Z,86.71
2018-04-25T00:34:04.776Z,86.68
2018-04-25T00:36:32.272Z,87.02
2018-04-25T00:38:59.854Z,87.24
2018-04-25T00:41:27.412Z,87.20
2018-04-25T00:43:54.869Z,87.60
2018-04-25T00:46:22.328Z,87.73
2018-04-25T00:48:49.891Z,87.84
2018-04-25T00:51:17.345Z,87.65
2018-04-25T00:53:44.826Z,87.58
2018-04-25T00:56:12.343Z,87.43
2018-04-25T00:58:39.799Z,87.60
2018-04-25T01:01:07.341Z,87.51
2018-04-25T01:03:34.811Z,87.51
2018-04-25T01:06:02.312Z,87.46
2018-04-25T01:08:29.827Z,87.29
2018-04-25T01:10:57.323Z,86.88
2018-04-25T01:13:24.837Z,86.78
2018-04-25T01:15:52.300Z,87.63
2018-04-25T01:18:19.783Z,87.58
2018-04-25T01:20:47.411Z,87.49
2018-04-25T01:23:24.679Z,87.57
2018-04-25T01:25:58.305Z,87.68
2018-04-25T01:28:25.855Z,87.90
2018-04-25T01:30:59.738Z,88.12
2018-04-25T01:33:28.025Z,88.66
2018-04-25T01:35:58.268Z,88.81
2018-04-25T01:38:27.747Z,88.47
2018-04-25T01:40:55.388Z,88.54
2018-04-25T01:43:23.025Z,88.32
2018-04-25T01:49:31.575Z,88.17
2018-04-25T01:52:10.889Z,88.34
2018-04-25T01:54:50.121Z,88.17
2018-04-25T01:57:29.280Z,88.31
2018-04-25T02:00:08.445Z,88.48
2018-04-25T02:02:35.448Z,88.69
2018-04-25T02:05:02.921Z,89.10
2018-04-25T02:07:30.395Z,88.84
2018-04-25T02:09:57.928Z,88.69
2018-04-25T02:12:25.485Z,88.62
2018-04-25T02:14:52.971Z,88.53
2018-04-25T02:17:20.452Z,88.87
2018-04-25T02:19:47.950Z,88.89
2018-04-25T02:22:15.444Z,88.94
2018-04-25T02:24:42.898Z,88.77
2018-04-25T02:27:10.388Z,88.67
2018-04-25T02:29:37.956Z,88.45
2018-04-25T02:32:05.531Z,88.52
2018-04-25T02:34:32.991Z,88.33
2018-04-25T02:37:00.487Z,88.29
2018-04-25T02:39:27.980Z,88.08
2018-04-25T02:41:55.460Z,87.86
2018-04-25T02:44:22.985Z,87.79
2018-04-25T02:46:50.470Z,88.12
2018-04-25T02:49:17.957Z,88.21
2018-04-25T02:51:45.524Z,88.29
2018-04-25T02:54:13.035Z,88.28
2018-04-25T02:56:40.489Z,88.33
2018-04-25T02:59:07.974Z,88.87
2018-04-25T03:01:35.461Z,88.99
2018-04-25T03:04:02.922Z,88.99
2018-04-25T03:06:30.404Z,88.89
2018-04-25T03:08:57.929Z,88.92
2018-04-25T03:11:25.482Z,88.99
2018-04-25T03:13:52.943Z,89.01
2018-04-25T03:16:20.463Z,89.04
2018-04-25T03:18:47.955Z,89.09
2018-04-25T03:21:15.438Z,89.11
2018-04-25T03:23:43.077Z,88.61
2018-04-25T03:26:10.564Z,88.37
2018-04-25T03:28:38.017Z,88.16
2018-04-25T03:31:05.499Z,87.79
2018-04-25T03:33:32.960Z,88.07
2018-04-25T03:36:00.462Z,87.78
2018-04-25T03:38:27.943Z,87.63
2018-04-25T03:40:55.461Z,87.29
2018-04-25T03:43:22.961Z,87.16
2018-04-25T03:45:50.411Z,86.94
2018-04-25T03:48:17.922Z,87.10
2018-04-25T03:50:45.421Z,87.21
2018-04-25T03:53:12.903Z,87.13
2018-04-25T03:55:40.400Z,87.29
2018-04-25T03:58:07.896Z,87.36
2018-04-25T04:00:35.399Z,87.39
2018-04-25T04:03:02.897Z,87.30
2018-04-25T04:05:30.360Z,86.82
2018-04-25T04:07:57.845Z,86.75
2018-04-25T04:10:25.334Z,86.82
2018-04-25T04:12:52.810Z,86.57
2018-04-25T04:15:20.378Z,86.54
2018-04-25T04:17:47.911Z,86.70
2018-04-25T04:20:15.385Z,87.17
2018-04-25T04:22:42.843Z,87.22
2018-04-25T04:25:10.342Z,87.64
2018-04-25T04:27:37.872Z,87.79
2018-04-25T04:30:05.431Z,87.33
2018-04-25T04:32:32.894Z,87.41
2018-04-25T04:35:00.406Z,86.99
2018-04-25T04:37:27.884Z,87.29
2018-04-25T04:39:55.373Z,87.14
2018-04-25T04:42:22.888Z,86.82
2018-04-25T04:44:50.347Z,86.28
2018-04-25T04:47:17.928Z,86.13
2018-04-25T04:49:45.383Z,85.70
2018-04-25T04:52:12.964Z,85.46
2018-04-25T04:54:40.469Z,85.24
2018-04-25T04:57:07.919Z,85.17
2018-04-25T04:59:35.427Z,85.39
2018-04-25T05:02:02.889Z,85.33
2018-04-25T05:04:30.390Z,84.96
2018-04-25T05:06:57.850Z,84.92
2018-04-25T05:09:25.394Z,84.33
2018-04-25T05:11:52.877Z,84.26
2018-04-25T05:14:20.357Z,84.61
2018-04-25T05:16:47.929Z,84.00
2018-04-25T05:19:15.408Z,83.32
2018-04-25T05:21:42.924Z,83.22
2018-04-25T05:24:10.528Z,83.00
2018-04-25T05:26:38.016Z,82.83
2018-04-25T05:29:05.596Z,82.39
2018-04-25T05:31:33.079Z,82.64
2018-04-25T05:34:00.551Z,82.30
2018-04-25T05:36:28.076Z,82.27
2018-04-25T05:38:55.531Z,82.22
2018-04-25T05:41:23.011Z,81.81
2018-04-25T05:43:50.520Z,82.28
2018-04-25T05:46:18.008Z,82.71
2018-04-25T05:48:45.596Z,82.58
2018-04-25T05:51:13.088Z,83.80
2018-04-25T05:53:40.584Z,83.46
2018-04-25T05:56:08.083Z,83.73
2018-04-25T05:58:35.530Z,83.48
2018-04-25T06:01:03.125Z,83.38
2018-04-25T06:03:30.608Z,83.59
2018-04-25T06:05:58.051Z,83.35
2018-04-25T06:08:25.540Z,82.96
2018-04-25T06:10:53.074Z,83.14
2018-04-25T06:13:20.579Z,83.10
2018-04-25T06:15:48.036Z,82.49
2018-04-25T06:18:15.591Z,81.74
2018-04-25T06:20:43.076Z,81.08
2018-04-25T06:23:10.667Z,81.00
2018-04-25T06:25:38.154Z,80.33
2018-04-25T06:28:05.698Z,80.09
2018-04-25T06:30:33.222Z,80.03
2018-04-25T06:33:00.793Z,80.04
2018-04-25T06:35:28.258Z,79.33
2018-04-25T06:37:55.833Z,78.90
2018-04-25T06:40:23.282Z,78.84
2018-04-25T06:42:50.735Z,78.01
2018-04-25T06:45:18.208Z,77.58
2018-04-25T06:47:45.709Z,77.72
2018-04-25T06:50:13.195Z,76.93
2018-04-25T06:52:40.676Z,76.85
2018-04-25T06:55:08.236Z,75.88
2018-04-25T06:57:35.699Z,76.48
2018-04-25T07:00:03.176Z,76.77
2018-04-25T07:02:30.640Z,77.14
2018-04-25T07:04:58.120Z,79.11
2018-04-25T07:07:25.591Z,79.60
2018-04-25T07:09:53.083Z,79.17
2018-04-25T07:12:20.558Z,78.12
2018-04-25T07:14:48.056Z,77.11
2018-04-25T07:17:15.654Z,77.41
2018-04-25T07:19:43.116Z,76.99
2018-04-25T07:22:10.576Z,75.99
2018-04-25T07:24:38.263Z,75.43
2018-04-25T07:27:05.717Z,75.15
2018-04-25T07:29:33.211Z,75.17
2018-04-25T07:32:00.710Z,75.42
2018-04-25T07:34:28.200Z,73.75
2018-04-25T07:36:55.689Z,74.47
2018-04-25T07:39:23.163Z,73.63
2018-04-25T07:41:50.723Z,73.68
2018-04-25T07:44:18.150Z,73.94
2018-04-25T07:46:45.658Z,73.40
2018-04-25T07:49:13.160Z,73.13
2018-04-25T07:51:40.612Z,72.82
2018-04-25T07:54:08.136Z,72.57
2018-04-25T07:56:35.625Z,72.13
2018-04-25T07:59:03.196Z,72.71
2018-04-25T08:01:30.689Z,72.21
2018-04-25T08:03:58.135Z,71.98
2018-04-25T08:06:25.604Z,71.53
2018-04-25T08:08:53.105Z,71.25
2018-04-25T08:11:20.572Z,70.38
2018-04-25T08:13:59.792Z,69.78
2018-04-25T08:16:39.057Z,68.64
2018-04-25T08:19:18.382Z,67.19
2018-04-25T08:21:45.889Z,66.34
2018-04-25T08:24:13.406Z,65.05
2018-04-25T08:26:40.932Z,64.31
2018-04-25T08:29:08.444Z,64.37
2018-04-25T08:31:35.920Z,64.82
2018-04-25T08:34:03.412Z,64.52
2018-04-25T08:36:30.939Z,64.78
2018-04-25T08:38:58.416Z,65.17
2018-04-25T08:41:25.980Z,65.29
2018-04-25T08:43:53.568Z,65.56
2018-04-25T08:46:21.023Z,66.11
2018-04-25T08:48:48.530Z,64.89
2018-04-25T08:51:16.045Z,63.06
2018-04-25T08:53:43.552Z,62.43
2018-04-25T08:56:11.041Z,61.81
2018-04-25T08:58:38.541Z,61.46
2018-04-25T09:01:06.030Z,61.65
2018-04-25T09:03:33.578Z,62.16
2018-04-25T09:06:01.075Z,60.90
2018-04-25T09:08:28.536Z,60.38
2018-04-25T09:10:56.021Z,59.70
2018-04-25T09:13:23.481Z,59.45
2018-04-25T09:15:50.969Z,58.78
2018-04-25T09:18:18.477Z,58.63
2018-04-25T09:20:45.953Z,57.73
2018-04-25T09:23:14.145Z,57.24
2018-04-25T09:25:41.776Z,57.20
2018-04-25T09:28:09.249Z,56.84
2018-04-25T09:30:36.696Z,57.37
2018-04-25T09:33:04.180Z,57.09
2018-04-25T09:35:31.655Z,56.22
2018-04-25T09:37:59.167Z,55.90
2018-04-25T09:40:26.649Z,55.93
2018-04-25T09:42:54.145Z,56.16
2018-04-25T09:45:21.619Z,54.74
2018-04-25T09:47:49.081Z,53.76
2018-04-25T09:50:16.648Z,52.39
2018-04-25T09:52:44.214Z,51.40
2018-04-25T09:55:11.699Z,51.85
2018-04-25T09:57:39.217Z,51.62
2018-04-25T10:00:06.686Z,52.03
2018-04-25T10:02:34.172Z,51.09
2018-04-25T10:05:01.688Z,51.20
2018-04-25T10:07:29.244Z,51.42
2018-04-25T10:09:56.738Z,52.01
2018-04-25T10:12:24.235Z,53.10
2018-04-25T10:14:51.710Z,52.36
2018-04-25T10:17:19.305Z,53.05
2018-04-25T10:19:46.833Z,52.29
2018-04-25T10:22:14.292Z,51.95
2018-04-25T10:24:41.808Z,52.46
2018-04-25T10:27:09.285Z,52.14
2018-04-25T10:29:36.764Z,51.56
2018-04-25T10:32:04.318Z,51.66
2018-04-25T10:34:31.740Z,52.84
2018-04-25T10:36:59.258Z,52.66
2018-04-25T10:39:26.799Z,51.89
2018-04-25T10:41:54.256Z,51.97
2018-04-25T10:44:21.737Z,51.95
2018-04-25T10:46:49.203Z,51.45
2018-04-25T10:49:16.677Z,51.55
2018-04-25T10:51:44.546Z,51.86
2018-04-25T10:54:12.035Z,51.95
2018-04-25T10:56:39.532Z,52.75
2018-04-25T10:59:06.981Z,53.04
2018-04-25T11:01:34.452Z,52.74
2018-04-25T11:04:01.935Z,53.68
2018-04-25T11:06:29.418Z,54.05
2018-04-25T11:08:56.940Z,58.61
2018-04-25T11:11:24.425Z,62.94
2018-04-25T11:13:51.871Z,68.77
2018-04-25T11:16:19.369Z,73.86
2018-04-25T11:18:46.859Z,78.52
2018-04-25T11:21:14.382Z,81.74
2018-04-25T11:23:41.873Z,83.46
2018-04-25T11:26:09.343Z,85.22
2018-04-25T11:28:36.855Z,86.73
2018-04-25T11:31:04.432Z,88.39
2018-04-25T11:33:32.024Z,88.32
2018-04-25T11:35:59.528Z,87.97
2018-04-25T11:38:27.006Z,86.81
2018-04-25T11:40:54.443Z,86.88
2018-04-25T11:43:21.919Z,86.32
2018-04-25T11:45:49.454Z,84.27
2018-04-25T11:48:16.947Z,81.68
2018-04-25T11:50:44.486Z,80.94
2018-04-25T11:53:11.959Z,78.09
2018-04-25T11:55:39.494Z,77.93
2018-04-25T11:58:07.031Z,76.60
2018-04-25T12:00:34.510Z,74.02
2018-04-25T12:03:01.987Z,73.31
2018-04-25T12:05:29.507Z,73.68
2018-04-25T12:07:57.103Z,72.78
2018-04-25T12:12:58.440Z,70.51
2018-04-25T12:15:25.981Z,69.16
2018-04-25T12:17:53.452Z,66.90
2018-04-25T12:20:20.987Z,65.92
2018-04-25T12:22:48.512Z,66.54
2018-04-25T12:25:16.005Z,66.11
2018-04-25T12:27:43.502Z,64.36
2018-04-25T12:30:11.001Z,64.36
2018-04-25T12:32:38.492Z,62.60
2018-04-25T12:35:05.947Z,61.65
2018-04-25T12:37:33.448Z,61.34
2018-04-25T12:40:00.956Z,61.54
2018-04-25T12:42:28.407Z,62.10
2018-04-25T12:44:55.875Z,62.89
2018-04-25T12:47:23.324Z,63.55
2018-04-25T12:49:50.828Z,61.71
2018-04-25T12:52:18.331Z,60.17
2018-04-25T12:54:45.821Z,59.90
2018-04-25T12:57:14.449Z,59.55
2018-04-25T12:59:41.948Z,59.25
2018-04-25T13:02:09.461Z,59.69
2018-04-25T13:04:36.919Z,60.75
2018-04-25T13:07:04.396Z,60.36
2018-04-25T13:09:31.912Z,59.49
2018-04-25T13:11:59.443Z,58.51
2018-04-25T13:14:26.894Z,57.93
2018-04-25T13:16:54.381Z,57.45
2018-04-25T13:19:21.832Z,57.54
2018-04-25T13:21:49.370Z,56.59
2018-04-25T13:24:16.822Z,56.75
2018-04-25T13:26:44.299Z,55.18
2018-04-25T13:29:11.835Z,54.29
2018-04-25T13:31:39.336Z,51.09
2018-04-25T13:34:06.786Z,51.15
2018-04-25T13:36:34.287Z,49.56
2018-04-25T13:39:01.771Z,49.23
2018-04-25T13:41:29.254Z,50.06
2018-04-25T13:43:56.816Z,50.49
2018-04-25T13:46:24.329Z,49.31
2018-04-25T13:48:51.840Z,49.31
2018-04-25T13:51:19.423Z,49.17
2018-04-25T13:53:46.897Z,48.93
2018-04-25T13:56:14.404Z,49.53
2018-04-25T13:58:41.888Z,50.08
2018-04-25T14:01:09.459Z,49.97
2018-04-25T14:03:36.954Z,50.14
2018-04-25T14:06:04.420Z,50.00
2018-04-25T14:08:31.948Z,49.03
2018-04-25T14:10:59.446Z,49.23
2018-04-25T14:13:26.952Z,49.84
2018-04-25T14:15:54.467Z,49.74
2018-04-25T14:18:22.020Z,49.26
2018-04-25T14:20:49.941Z,48.44
2018-04-25T14:23:17.465Z,48.88
2018-04-25T14:25:45.047Z,48.04
2018-04-25T14:28:12.579Z,48.75
2018-04-25T14:30:40.089Z,49.58
2018-04-25T14:33:07.586Z,50.49
2018-04-25T14:35:35.031Z,51.12
2018-04-25T14:38:02.499Z,51.54
2018-04-25T14:40:29.968Z,51.42
2018-04-25T14:42:57.478Z,52.07
2018-04-25T14:45:24.947Z,51.26
2018-04-25T14:47:52.473Z,51.56
2018-04-25T14:50:19.983Z,51.43
2018-04-25T14:52:47.510Z,51.79
2018-04-25T14:55:14.980Z,50.81
2018-04-25T14:57:42.529Z,50.69
2018-04-25T15:00:10.087Z,50.62
2018-04-25T15:02:37.620Z,49.66
2018-04-25T15:05:05.147Z,49.98
2018-04-25T15:07:32.630Z,50.40
2018-04-25T15:10:00.192Z,50.13
2018-04-25T15:12:27.783Z,49.77
2018-04-25T15:14:55.274Z,49.74
2018-04-25T15:17:22.792Z,49.46
2018-04-25T15:19:50.326Z,49.32
2018-04-25T15:22:17.760Z,47.47
2018-04-25T15:24:45.276Z,48.46
2018-04-25T15:27:12.726Z,46.93
2018-04-25T15:29:40.185Z,44.05
2018-04-25T15:32:07.645Z,43.26
2018-04-25T15:34:35.192Z,41.24
2018-04-25T15:37:02.634Z,41.34
2018-04-25T15:39:30.138Z,41.24
2018-04-25T15:41:57.773Z,40.59
2018-04-25T15:44:25.265Z,40.42
2018-04-25T15:46:52.734Z,39.74
2018-04-25T15:49:20.250Z,41.70
2018-04-25T15:51:47.740Z,42.38
2018-04-25T15:54:15.191Z,42.18
2018-04-25T15:56:42.714Z,40.57
2018-04-25T15:59:10.202Z,40.54
2018-04-25T16:01:37.767Z,41.16
2018-04-25T16:04:05.306Z,41.31
2018-04-25T16:06:32.793Z,42.18
2018-04-25T16:09:00.251Z,43.95
2018-04-25T16:11:27.737Z,45.25
2018-04-25T16:13:55.340Z,47.40
2018-04-25T16:16:23.056Z,48.55
2018-04-25T16:18:50.557Z,48.79
2018-04-25T16:21:18.120Z,49.02
2018-04-25T16:23:45.543Z,49.41
2018-04-25T16:26:13.153Z,50.49
2018-04-25T16:28:40.681Z,50.41
2018-04-25T16:31:08.212Z,51.05
2018-04-25T16:33:35.646Z,51.37
2018-04-25T16:36:03.192Z,51.39
2018-04-25T16:38:30.655Z,50.84
2018-04-25T16:40:58.176Z,50.70
2018-04-25T16:43:25.684Z,51.16
2018-04-25T16:45:53.209Z,51.12
2018-04-25T16:48:20.649Z,51.82
2018-04-25T16:50:48.174Z,52.74
2018-04-25T16:53:15.670Z,53.46
2018-04-25T16:55:43.188Z,54.21
2018-04-25T16:58:10.716Z,54.26
2018-04-25T17:00:38.205Z,54.82
2018-04-25T17:03:05.691Z,54.76
2018-04-25T17:05:33.284Z,54.59
2018-04-25T17:08:00.754Z,55.02
2018-04-25T17:10:28.201Z,55.34
2018-04-25T17:12:55.658Z,55.83
2018-04-25T17:15:23.188Z,56.15
2018-04-25T17:17:50.713Z,56.07
2018-04-25T17:20:18.233Z,56.03
2018-04-25T17:22:45.722Z,56.08
2018-04-25T17:25:13.250Z,57.08
2018-04-25T17:27:40.748Z,55.99
2018-04-25T17:30:08.239Z,56.64
2018-04-25T17:32:35.719Z,56.95
2018-04-25T17:35:03.252Z,57.53
2018-04-25T17:37:30.746Z,57.15
2018-04-25T17:39:58.238Z,57.44
2018-04-25T17:42:25.791Z,57.94
2018-04-25T17:44:53.619Z,58.33
2018-04-25T17:47:21.990Z,58.07
2018-04-25T17:49:49.472Z,58.77
2018-04-25T17:52:16.963Z,58.36
2018-04-25T17:54:44.439Z,58.11
2018-04-25T17:57:11.969Z,58.36
2018-04-25T17:59:39.520Z,58.81
2018-04-25T18:02:07.003Z,59.48
2018-04-25T18:04:34.508Z,59.82
2018-04-25T18:07:02.045Z,59.90
2018-04-25T18:09:29.928Z,60.35
2018-04-25T18:11:57.495Z,60.68
2018-04-25T18:14:24.984Z,61.14
2018-04-25T18:16:52.480Z,61.20
2018-04-25T18:19:19.907Z,61.46
2018-04-25T18:21:47.368Z,61.87
2018-04-25T18:24:14.819Z,61.79
2018-04-25T18:26:43.077Z,62.39
2018-04-25T18:29:10.844Z,62.11
2018-04-25T18:31:38.884Z,62.47
2018-04-25T18:34:06.424Z,62.14
2018-04-25T18:36:33.915Z,62.51
2018-04-25T18:39:01.436Z,62.07
2018-04-25T18:41:28.904Z,62.17
2018-04-25T18:43:56.442Z,61.96
2018-04-25T18:46:23.941Z,62.17
2018-04-25T18:48:51.501Z,62.09
2018-04-25T18:51:19.014Z,62.63
2018-04-25T18:53:46.510Z,62.89
2018-04-25T18:56:14.055Z,62.93
2018-04-25T18:58:41.527Z,62.82
2018-04-25T19:01:09.036Z,62.35
2018-04-25T19:03:36.523Z,63.20
2018-04-25T19:06:04.410Z,62.71
2018-04-25T19:08:32.279Z,63.07
2018-04-25T19:10:59.800Z,63.40
2018-04-25T19:13:27.389Z,63.92
2018-04-25T19:15:54.888Z,64.05
2018-04-25T19:18:22.360Z,64.57
2018-04-25T19:20:49.872Z,65.06
2018-04-25T19:23:17.390Z,65.27
2018-04-25T19:25:45.189Z,64.72
2018-04-25T19:28:12.745Z,65.22
2018-04-25T19:30:40.289Z,65.33
2018-04-25T19:33:07.785Z,66.49
2018-04-25T19:35:35.738Z,66.45
2018-04-25T19:52:55.379Z,66.04
2018-04-25T19:55:22.856Z,66.34
2018-04-25T19:57:50.311Z,66.87
2018-04-25T20:00:17.799Z,67.25
2018-04-25T20:02:45.289Z,67.25
2018-04-25T20:05:12.736Z,67.63
2018-04-25T20:07:40.236Z,67.81
2018-04-25T20:10:07.716Z,67.95
2018-04-25T20:12:35.276Z,68.50
2018-04-25T20:15:03.169Z,68.67
2018-04-25T20:17:30.670Z,68.91
2018-04-25T20:19:58.166Z,68.95
2018-04-25T20:22:25.951Z,68.81
2018-04-25T20:24:53.443Z,69.24
2018-04-25T20:27:20.893Z,69.34
2018-04-25T20:29:48.441Z,69.63
2018-04-25T20:32:15.880Z,70.06
2018-04-25T20:34:43.355Z,70.22
2018-04-25T20:37:10.868Z,70.16
2018-04-25T20:39:38.324Z,70.36
2018-04-25T20:42:05.851Z,70.41
2018-04-25T20:44:33.330Z,70.28
2018-04-25T20:47:00.871Z,70.83
2018-04-25T20:49:28.356Z,71.02
2018-04-25T20:51:55.920Z,70.72
2018-04-25T20:54:23.713Z,70.85
2018-04-25T20:56:51.275Z,70.91
2018-04-25T20:59:18.754Z,70.70
2018-04-25T21:01:46.257Z,70.48
2018-04-25T21:04:13.737Z,70.62
2018-04-25T21:06:41.228Z,71.17
2018-04-25T21:09:08.722Z,71.26
2018-04-25T21:11:36.168Z,71.13
2018-04-25T21:14:03.680Z,71.18
2018-04-25T21:16:31.161Z,71.08
2018-04-25T21:18:58.624Z,71.00
2018-04-25T21:21:26.142Z,71.49
2018-04-25T21:23:53.613Z,70.46
2018-04-25T21:26:21.074Z,70.32
2018-04-25T21:28:48.568Z,69.93
2018-04-25T21:31:16.024Z,70.04
2018-04-25T21:33:43.537Z,69.67
2018-04-25T21:36:11.008Z,69.76
2018-04-25T21:38:38.528Z,70.06
2018-04-25T21:41:05.981Z,70.49
2018-04-25T21:43:33.452Z,70.74
2018-04-25T21:46:01.027Z,71.06
2018-04-25T21:48:28.483Z,71.21
2018-04-25T21:50:55.959Z,71.15
2018-04-25T21:53:23.442Z,71.25
2018-04-25T21:55:50.926Z,71.33
2018-04-25T21:58:18.437Z,71.58
2018-04-25T22:00:45.888Z,71.36
2018-04-25T22:03:13.367Z,71.68
2018-04-25T22:05:40.986Z,71.46
2018-04-25T22:08:08.504Z,71.78
2018-04-25T22:10:36.085Z,72.13
2018-04-25T22:13:03.535Z,72.24
2018-04-25T22:15:30.995Z,71.95
2018-04-25T22:17:58.490Z,72.22
2018-04-25T22:20:25.936Z,72.37
2018-04-25T22:22:53.431Z,72.25
2018-04-25T22:25:21.040Z,72.51
2018-04-25T22:27:48.523Z,72.38
2018-04-25T22:30:16.011Z,72.68
2018-04-25T22:32:43.582Z,72.90
2018-04-25T22:35:11.027Z,73.31
2018-04-25T22:37:38.521Z,73.49
2018-04-25T22:40:06.020Z,73.40
2018-04-25T22:42:33.476Z,73.59
2018-04-25T22:45:01.103Z,73.78
2018-04-25T22:47:28.570Z,73.50
2018-04-25T22:49:56.011Z,73.33
2018-04-25T22:52:23.475Z,73.28
2018-04-25T22:54:51.050Z,73.14
2018-04-25T22:57:18.523Z,73.13
2018-04-25T22:59:46.020Z,72.83
2018-04-25T23:02:13.483Z,72.92
2018-04-25T23:04:40.962Z,73.17
2018-04-25T23:07:08.424Z,73.11
2018-04-25T23:09:35.936Z,73.12
2018-04-25T23:12:03.437Z,73.21
2018-04-25T23:14:30.916Z,73.58
2018-04-25T23:16:58.365Z,74.16
2018-04-25T23:19:25.856Z,74.58
2018-04-25T23:21:53.301Z,75.15
2018-04-25T23:24:20.790Z,74.94
2018-04-25T23:26:48.266Z,74.78
2018-04-25T23:29:15.742Z,74.58
2018-04-25T23:31:43.232Z,74.46
2018-04-25T23:34:10.840Z,74.36
2018-04-25T23:36:38.408Z,74.42
2018-04-25T23:39:05.908Z,74.59
2018-04-25T23:41:33.379Z,74.78
2018-04-25T23:44:00.819Z,74.78
2018-04-25T23:46:28.287Z,74.30
2018-04-25T23:48:55.770Z,74.19
2018-04-25T23:51:23.248Z,74.47
2018-04-25T23:53:50.747Z,74.38
2018-04-25T23:56:18.196Z,74.50
2018-04-25T23:58:45.648Z,74.62
